createdAt,value
2023-05-16T00:00:29.244Z,99919.53
2023-05-16T00:01:00.663Z,99925.75
2023-05-16T00:01:32.132Z,99924.22
2023-05-16T00:02:03.603Z,99920.88
2023-05-16T00:02:35.216Z,99917.63
2023-05-16T00:03:06.868Z,99929.59
2023-05-16T00:03:38.561Z,99927.16
2023-05-16T00:04:10.242Z,99925.22
2023-05-16T00:04:41.682Z,99923.56
2023-05-16T00:05:13.151Z,99920.84
2023-05-16T00:05:44.582Z,99924.13
2023-05-16T00:06:16.023Z,99917.06
2023-05-16T00:06:47.454Z,99916.50
2023-05-16T00:07:18.958Z,99919.22
2023-05-16T00:07:50.409Z,99915.41
2023-05-16T00:08:21.800Z,99919.22
2023-05-16T00:08:53.236Z,99919.22
2023-05-16T00:09:24.723Z,99922.78
2023-05-16T00:09:56.161Z,99914.09
2023-05-16T00:10:27.962Z,99920.88
2023-05-16T00:10:59.690Z,99919.78
2023-05-16T00:11:31.074Z,99923.31
2023-05-16T00:12:02.494Z,99924.19
2023-05-16T00:12:33.953Z,99924.19
2023-05-16T00:13:05.404Z,99921.44
2023-05-16T00:13:36.836Z,99919.28
2023-05-16T00:14:08.236Z,99927.72
2023-05-16T00:14:39.672Z,99927.97
2023-05-16T00:15:11.116Z,99922.81
2023-05-16T00:15:42.538Z,99933.97
2023-05-16T00:16:13.948Z,99929.09
2023-05-16T00:16:45.363Z,99934.53
2023-05-16T00:17:16.814Z,99931.00
2023-05-16T00:17:48.389Z,99931.84
2023-05-16T00:18:19.799Z,99934.56
2023-05-16T00:18:51.236Z,99935.13
2023-05-16T00:19:22.760Z,99927.22
2023-05-16T00:19:54.192Z,99938.38
2023-05-16T00:20:25.744Z,99935.41
2023-05-16T00:20:57.336Z,99938.63
2023-05-16T00:21:28.766Z,99942.13
2023-05-16T00:22:00.207Z,99940.50
2023-05-16T00:22:31.657Z,99938.34
2023-05-16T00:23:03.085Z,99944.03
2023-05-16T00:23:34.793Z,99940.81
2023-05-16T00:24:06.278Z,99941.63
2023-05-16T00:24:39.044Z,99940.81
2023-05-16T00:25:10.533Z,99942.72
2023-05-16T00:25:41.926Z,99947.09
2023-05-16T00:26:13.348Z,99947.06
2023-05-16T00:26:44.864Z,99945.19
2023-05-16T00:27:16.268Z,99957.47
2023-05-16T00:27:47.665Z,99956.66
2023-05-16T00:28:19.089Z,99955.28
2023-05-16T00:28:50.496Z,99950.34
2023-05-16T00:29:21.936Z,99954.16
2023-05-16T00:29:53.318Z,99961.25
2023-05-16T00:30:24.927Z,99960.16
2023-05-16T00:30:56.724Z,99956.66
2023-05-16T00:31:28.265Z,99965.63
2023-05-16T00:31:59.726Z,99962.63
2023-05-16T00:32:31.194Z,99959.63
2023-05-16T00:33:02.757Z,99962.09
2023-05-16T00:33:34.200Z,99971.63
2023-05-16T00:34:05.654Z,99967.53
2023-05-16T00:34:37.144Z,99957.19
2023-05-16T00:35:08.547Z,99964.81
2023-05-16T00:35:40.014Z,99964.53
2023-05-16T00:36:11.474Z,99965.63
2023-05-16T00:36:42.993Z,99957.19
2023-05-16T00:37:14.404Z,99957.72
2023-05-16T00:37:45.817Z,99963.72
2023-05-16T00:38:17.290Z,99966.72
2023-05-16T00:38:48.735Z,99964.81
2023-05-16T00:39:20.207Z,99964.25
2023-05-16T00:39:51.623Z,99961.28
2023-05-16T00:40:23.057Z,99971.59
2023-05-16T00:40:54.475Z,99968.31
2023-05-16T00:41:25.904Z,99973.78
2023-05-16T00:41:57.400Z,99967.78
2023-05-16T00:42:28.851Z,99962.34
2023-05-16T00:43:00.259Z,99965.63
2023-05-16T00:43:31.744Z,99963.72
2023-05-16T00:44:03.197Z,99968.59
2023-05-16T00:44:34.610Z,99960.19
2023-05-16T00:45:06.037Z,99966.16
2023-05-16T00:45:37.436Z,99964.53
2023-05-16T00:46:08.869Z,99963.72
2023-05-16T00:46:40.367Z,99967.25
2023-05-16T00:47:11.925Z,99967.78
2023-05-16T00:47:43.350Z,99971.59
2023-05-16T00:48:14.836Z,99976.50
2023-05-16T00:48:46.294Z,99965.09
2023-05-16T00:49:17.743Z,99963.72
2023-05-16T00:49:49.141Z,99970.53
2023-05-16T00:50:20.565Z,99971.34
2023-05-16T00:50:51.976Z,99970.53
2023-05-16T00:51:23.378Z,99975.97
2023-05-16T00:51:54.771Z,99975.69
2023-05-16T00:52:26.247Z,99973.25
2023-05-16T00:52:57.670Z,99970.25
2023-05-16T00:53:29.319Z,99976.78
2023-05-16T00:54:00.735Z,99977.59
2023-05-16T00:54:32.240Z,99974.59
2023-05-16T00:55:03.730Z,99980.84
2023-05-16T00:55:35.150Z,99975.97
2023-05-16T00:56:06.563Z,99973.53
2023-05-16T00:56:38.017Z,99975.94
2023-05-16T00:57:09.406Z,99979.75
2023-05-16T00:57:40.829Z,99978.41
2023-05-16T00:58:12.344Z,99975.69
2023-05-16T00:58:43.792Z,99971.06
2023-05-16T00:59:15.325Z,99971.59
2023-05-16T00:59:46.769Z,99975.94
2023-05-16T01:00:18.241Z,99977.03
2023-05-16T01:00:49.635Z,99977.59
2023-05-16T01:01:21.061Z,99981.94
2023-05-16T01:01:52.581Z,99979.50
2023-05-16T01:02:24.257Z,99983.03
2023-05-16T01:02:55.777Z,99980.03
2023-05-16T01:03:27.323Z,99973.50
2023-05-16T01:03:58.905Z,99976.50
2023-05-16T01:04:30.556Z,99969.16
2023-05-16T01:05:01.984Z,99977.31
2023-05-16T01:05:33.391Z,99982.78
2023-05-16T01:06:04.806Z,99985.22
2023-05-16T01:06:36.214Z,99981.41
2023-05-16T01:07:07.578Z,99975.72
2023-05-16T01:07:39.014Z,99978.72
2023-05-16T01:08:10.521Z,99978.44
2023-05-16T01:08:41.957Z,99984.69
2023-05-16T01:09:13.382Z,99979.53
2023-05-16T01:09:44.862Z,99980.91
2023-05-16T01:10:16.275Z,99986.63
2023-05-16T01:10:47.663Z,99984.19
2023-05-16T01:11:19.117Z,99987.72
2023-05-16T01:11:50.506Z,99979.28
2023-05-16T01:12:21.986Z,99985.53
2023-05-16T01:12:53.402Z,99984.72
2023-05-16T01:13:24.915Z,99989.59
2023-05-16T01:13:56.322Z,99982.25
2023-05-16T01:14:27.779Z,99991.25
2023-05-16T01:14:59.340Z,99990.97
2023-05-16T01:15:30.757Z,99983.34
2023-05-16T01:16:02.225Z,99992.31
2023-05-16T01:16:33.873Z,99992.31
2023-05-16T01:17:05.319Z,99988.50
2023-05-16T01:17:36.843Z,99994.50
2023-05-16T01:18:08.376Z,99989.34
2023-05-16T01:18:40.068Z,99996.47
2023-05-16T01:19:11.539Z,99991.25
2023-05-16T01:19:42.986Z,99992.84
2023-05-16T01:20:14.369Z,99994.22
2023-05-16T01:20:45.781Z,100001.03
2023-05-16T01:21:17.203Z,99990.16
2023-05-16T01:21:48.657Z,99987.44
2023-05-16T01:22:20.061Z,100000.78
2023-05-16T01:22:51.501Z,99987.72
2023-05-16T01:23:22.896Z,99993.16
2023-05-16T01:23:54.358Z,99989.41
2023-05-16T01:24:25.837Z,99998.66
2023-05-16T01:24:57.228Z,99990.72
2023-05-16T01:25:28.811Z,99997.28
2023-05-16T01:26:00.442Z,99996.16
2023-05-16T01:26:31.896Z,100000.03
2023-05-16T01:27:03.294Z,99994.56
2023-05-16T01:27:34.742Z,99987.78
2023-05-16T01:28:06.139Z,99996.22
2023-05-16T01:28:37.558Z,99998.38
2023-05-16T01:29:09.061Z,100003.50
2023-05-16T01:29:40.521Z,99996.47
2023-05-16T01:30:11.946Z,99997.84
2023-05-16T01:30:43.361Z,100004.38
2023-05-16T01:31:14.823Z,100000.03
2023-05-16T01:31:46.307Z,99999.22
2023-05-16T01:32:17.762Z,99996.22
2023-05-16T01:32:49.311Z,100002.22
2023-05-16T01:33:20.742Z,100001.09
2023-05-16T01:33:52.147Z,99997.31
2023-05-16T01:34:23.629Z,99999.22
2023-05-16T01:34:55.019Z,99996.75
2023-05-16T01:35:26.782Z,99992.94
2023-05-16T01:35:58.330Z,100003.03
2023-05-16T01:36:29.935Z,99995.13
2023-05-16T01:37:01.377Z,100000.03
2023-05-16T01:37:32.816Z,99996.50
2023-05-16T01:38:04.308Z,99991.31
2023-05-16T01:38:35.699Z,99998.38
2023-05-16T01:39:07.106Z,99999.19
2023-05-16T01:39:38.532Z,99997.31
2023-05-16T01:40:10.231Z,99995.94
2023-05-16T01:40:41.738Z,100000.31
2023-05-16T01:41:13.122Z,99999.22
2023-05-16T01:41:44.578Z,99995.41
2023-05-16T01:42:16.309Z,99993.22
2023-05-16T01:42:47.912Z,99996.50
2023-05-16T01:43:19.314Z,99998.41
2023-05-16T01:43:50.778Z,99992.16
2023-05-16T01:44:22.182Z,100003.03
2023-05-16T01:44:53.612Z,100000.03
2023-05-16T01:45:25.290Z,99999.75
2023-05-16T01:45:56.937Z,100002.75
2023-05-16T01:46:28.360Z,99999.50
2023-05-16T01:47:00.029Z,99992.41
2023-05-16T01:47:31.612Z,100002.72
2023-05-16T01:48:03.038Z,100003.56
2023-05-16T01:48:34.531Z,99998.13
2023-05-16T01:49:06.017Z,100000.03
2023-05-16T01:49:37.451Z,99998.97
2023-05-16T01:50:08.876Z,100000.59
2023-05-16T01:50:40.322Z,99992.16
2023-05-16T01:51:11.738Z,100000.03
2023-05-16T01:51:43.221Z,100001.13
2023-05-16T01:52:14.727Z,99999.75
2023-05-16T01:52:46.115Z,100009.56
2023-05-16T01:53:17.554Z,100007.09
2023-05-16T01:53:48.949Z,100006.03
2023-05-16T01:54:20.402Z,99995.94
2023-05-16T01:54:51.820Z,100003.56
2023-05-16T01:55:23.263Z,100003.56
2023-05-16T01:55:54.716Z,100005.19
2023-05-16T01:56:26.144Z,100009.84
2023-05-16T01:56:57.648Z,100007.94
2023-05-16T01:57:29.144Z,100011.72
2023-05-16T01:58:00.643Z,100006.84
2023-05-16T01:58:32.143Z,100006.28
2023-05-16T01:59:03.700Z,100004.66
2023-05-16T01:59:35.158Z,100002.22
2023-05-16T02:00:06.574Z,100008.19
2023-05-16T02:00:38.109Z,100010.66
2023-05-16T02:01:09.788Z,100009.84
2023-05-16T02:01:41.334Z,100002.75
2023-05-16T02:02:12.973Z,100009.84
2023-05-16T02:02:44.444Z,100018.81
2023-05-16T02:03:16.033Z,100009.84
2023-05-16T02:03:47.733Z,100006.28
2023-05-16T02:04:19.294Z,100003.84
2023-05-16T02:04:50.858Z,100010.91
2023-05-16T02:05:22.271Z,100007.66
2023-05-16T02:05:53.673Z,100014.22
2023-05-16T02:06:25.125Z,100020.75
2023-05-16T02:06:56.559Z,100010.94
2023-05-16T02:07:28.034Z,100024.53
2023-05-16T02:07:59.529Z,100017.19
2023-05-16T02:08:30.947Z,100019.09
2023-05-16T02:09:44.913Z,100016.38
2023-05-16T02:10:16.255Z,100020.72
2023-05-16T02:10:47.676Z,100022.34
2023-05-16T02:11:19.119Z,100011.75
2023-05-16T02:11:50.502Z,100024.25
2023-05-16T02:12:21.883Z,100025.63
2023-05-16T02:12:53.287Z,100024.53
2023-05-16T02:13:24.843Z,100020.72
2023-05-16T02:13:56.230Z,100026.16
2023-05-16T02:14:27.620Z,100028.06
2023-05-16T02:14:59.009Z,100021.56
2023-05-16T02:15:30.494Z,100028.06
2023-05-16T02:16:01.871Z,100022.91
2023-05-16T02:16:33.268Z,100028.63
2023-05-16T02:17:04.905Z,100024.81
2023-05-16T02:17:36.380Z,100011.47
2023-05-16T02:18:07.816Z,100027.53
2023-05-16T02:18:39.292Z,100028.63
2023-05-16T02:19:10.910Z,100022.91
2023-05-16T02:19:42.334Z,100027.53
2023-05-16T02:20:13.769Z,100025.38
2023-05-16T02:20:45.128Z,100023.75
2023-05-16T02:21:16.538Z,100027.81
2023-05-16T02:21:47.955Z,100031.63
2023-05-16T02:22:19.292Z,100034.34
2023-05-16T02:22:50.810Z,100033.81
2023-05-16T02:23:22.136Z,100030.28
2023-05-16T02:23:53.666Z,100023.47
2023-05-16T02:24:25.045Z,100023.47
2023-05-16T02:24:56.513Z,100032.19
2023-05-16T02:25:28.256Z,100040.34
2023-05-16T02:25:59.832Z,100034.91
2023-05-16T02:26:31.285Z,100032.72
2023-05-16T02:27:02.681Z,100031.09
2023-05-16T02:27:34.130Z,100030.00
2023-05-16T02:28:05.531Z,100035.97
2023-05-16T02:28:36.949Z,100037.88
2023-05-16T02:29:08.329Z,100035.16
2023-05-16T02:29:39.683Z,100033.81
2023-05-16T02:30:11.055Z,100034.63
2023-05-16T02:30:42.561Z,100038.72
2023-05-16T02:31:14.022Z,100040.34
2023-05-16T02:31:45.454Z,100039.78
2023-05-16T02:32:16.860Z,100035.16
2023-05-16T02:32:48.297Z,100040.34
2023-05-16T02:33:19.693Z,100042.50
2023-05-16T02:33:51.110Z,100044.16
2023-05-16T02:34:22.491Z,100049.59
2023-05-16T02:34:53.878Z,100041.97
2023-05-16T02:35:25.450Z,100045.78
2023-05-16T02:35:56.948Z,100043.59
2023-05-16T02:36:28.321Z,100056.91
2023-05-16T02:36:59.728Z,100050.94
2023-05-16T02:37:31.107Z,100047.13
2023-05-16T02:38:02.474Z,100056.13
2023-05-16T02:38:33.928Z,100051.22
2023-05-16T02:39:05.509Z,100048.78
2023-05-16T02:39:36.935Z,100057.72
2023-05-16T02:40:08.279Z,100053.66
2023-05-16T02:40:39.628Z,100050.13
2023-05-16T02:41:11.089Z,100057.19
2023-05-16T02:41:42.441Z,100056.94
2023-05-16T02:42:13.844Z,100058.84
2023-05-16T02:42:45.200Z,100056.94
2023-05-16T02:43:16.538Z,100055.31
2023-05-16T02:43:47.999Z,100057.50
2023-05-16T02:44:19.392Z,100055.31
2023-05-16T02:44:50.853Z,100056.41
2023-05-16T02:45:22.237Z,100060.47
2023-05-16T02:45:53.649Z,100059.13
2023-05-16T02:46:25.175Z,100057.22
2023-05-16T02:46:56.709Z,100059.66
2023-05-16T02:47:28.198Z,100062.13
2023-05-16T02:47:59.665Z,100059.66
2023-05-16T02:48:31.140Z,100064.81
2023-05-16T02:49:02.517Z,100060.47
2023-05-16T02:49:33.957Z,100058.84
2023-05-16T02:50:05.398Z,100061.28
2023-05-16T02:50:36.788Z,100069.16
2023-05-16T02:51:08.196Z,100072.44
2023-05-16T02:51:39.600Z,100064.53
2023-05-16T02:52:11.085Z,100073.53
2023-05-16T02:52:42.500Z,100070.81
2023-05-16T02:53:13.877Z,100076.25
2023-05-16T02:53:45.227Z,100073.81
2023-05-16T02:54:16.594Z,100078.69
2023-05-16T02:54:56.116Z,100081.97
2023-05-16T02:55:39.728Z,100084.13
2023-05-16T02:56:11.266Z,100086.03
2023-05-16T02:56:42.684Z,100083.88
2023-05-16T02:57:14.141Z,100089.59
2023-05-16T02:57:45.549Z,100078.16
2023-05-16T02:58:16.907Z,100086.31
2023-05-16T02:58:48.322Z,100088.22
2023-05-16T02:59:19.748Z,100085.78
2023-05-16T02:59:51.151Z,100088.75
2023-05-16T03:00:22.533Z,100088.75
2023-05-16T03:00:53.958Z,100086.59
2023-05-16T03:01:25.353Z,100090.66
2023-05-16T03:01:56.886Z,100082.22
2023-05-16T03:02:28.326Z,100092.03
2023-05-16T03:02:59.772Z,100089.56
2023-05-16T03:03:31.363Z,100088.75
2023-05-16T03:04:03.016Z,100091.19
2023-05-16T03:04:34.493Z,100087.94
2023-05-16T03:05:06.062Z,100097.19
2023-05-16T03:05:37.447Z,100090.38
2023-05-16T03:06:08.854Z,100088.19
2023-05-16T03:06:40.362Z,100092.56
2023-05-16T03:07:11.802Z,100092.56
2023-05-16T03:07:43.326Z,100089.56
2023-05-16T03:08:14.717Z,100090.66
2023-05-16T03:08:46.045Z,100093.66
2023-05-16T03:09:17.410Z,100100.97
2023-05-16T03:09:48.780Z,100097.44
2023-05-16T03:10:20.171Z,100090.66
2023-05-16T03:10:51.560Z,100091.75
2023-05-16T03:11:23.026Z,100093.63
2023-05-16T03:11:54.416Z,100093.38
2023-05-16T03:12:25.847Z,100094.47
2023-05-16T03:12:57.254Z,100095.81
2023-05-16T03:13:28.644Z,100094.47
2023-05-16T03:14:01.770Z,100089.03
2023-05-16T03:14:33.517Z,100095.00
2023-05-16T03:15:04.915Z,100094.72
2023-05-16T03:15:36.252Z,100100.16
2023-05-16T03:16:07.777Z,100091.75
2023-05-16T03:16:39.452Z,100096.91
2023-05-16T03:17:11.046Z,100102.63
2023-05-16T03:17:42.445Z,100098.25
2023-05-16T03:18:13.952Z,100093.09
2023-05-16T03:18:45.365Z,100095.53
2023-05-16T03:19:16.976Z,100101.53
2023-05-16T03:19:48.423Z,100103.16
2023-05-16T03:20:19.912Z,100099.34
2023-05-16T03:20:51.330Z,100101.25
2023-05-16T03:21:22.689Z,100097.44
2023-05-16T03:21:54.048Z,100097.44
2023-05-16T03:22:25.446Z,100098.00
2023-05-16T03:22:56.858Z,100102.06
2023-05-16T03:23:28.300Z,100093.91
2023-05-16T03:23:59.725Z,100100.16
2023-05-16T03:24:31.214Z,100102.34
2023-05-16T03:25:02.734Z,100097.72
2023-05-16T03:25:34.140Z,100100.72
2023-05-16T03:26:05.593Z,100102.09
2023-05-16T03:26:37.019Z,100100.19
2023-05-16T03:27:08.475Z,100104.25
2023-05-16T03:27:39.883Z,100107.25
2023-05-16T03:28:12.301Z,100102.34
2023-05-16T03:28:44.689Z,100106.16
2023-05-16T03:29:16.086Z,100098.00
2023-05-16T03:29:47.521Z,100100.44
2023-05-16T03:30:19.021Z,100104.50
2023-05-16T03:30:50.445Z,100105.31
2023-05-16T03:31:21.881Z,100105.59
2023-05-16T03:31:53.323Z,100108.06
2023-05-16T03:32:24.724Z,100107.25
2023-05-16T03:32:56.097Z,100108.06
2023-05-16T03:33:27.539Z,100106.69
2023-05-16T03:33:58.914Z,100111.88
2023-05-16T03:34:30.350Z,100112.41
2023-05-16T03:35:01.760Z,100108.06
2023-05-16T03:35:33.230Z,100113.75
2023-05-16T03:36:04.616Z,100116.22
2023-05-16T03:36:36.010Z,100113.50
2023-05-16T03:37:07.418Z,100109.97
2023-05-16T03:37:38.840Z,100121.66
2023-05-16T03:38:10.240Z,100115.94
2023-05-16T03:38:41.637Z,100112.97
2023-05-16T03:39:12.995Z,100109.16
2023-05-16T03:39:44.355Z,100113.22
2023-05-16T03:40:15.777Z,100113.22
2023-05-16T03:40:47.240Z,100108.06
2023-05-16T03:41:18.584Z,100115.41
2023-05-16T03:41:50.001Z,100120.03
2023-05-16T03:42:21.450Z,100114.59
2023-05-16T03:42:52.845Z,100113.22
2023-05-16T03:43:24.269Z,100113.75
2023-05-16T03:43:55.671Z,100114.31
2023-05-16T03:44:27.034Z,100115.41
2023-05-16T03:44:58.433Z,100120.84
2023-05-16T03:45:30.033Z,100118.13
2023-05-16T03:46:01.684Z,100120.56
2023-05-16T03:46:33.280Z,100115.94
2023-05-16T03:47:04.818Z,100114.03
2023-05-16T03:47:36.296Z,100123.56
2023-05-16T03:48:07.803Z,100125.19
2023-05-16T03:48:39.311Z,100123.00
2023-05-16T03:49:10.736Z,100120.03
2023-05-16T03:49:42.069Z,100118.13
2023-05-16T03:50:13.423Z,100121.94
2023-05-16T03:50:44.784Z,100119.75
2023-05-16T03:51:16.162Z,100119.47
2023-05-16T03:51:47.578Z,100120.56
2023-05-16T03:52:18.971Z,100131.19
2023-05-16T03:52:50.368Z,100119.22
2023-05-16T03:53:21.889Z,100117.31
2023-05-16T03:53:53.286Z,100121.66
2023-05-16T03:54:24.673Z,100127.38
2023-05-16T03:54:56.104Z,100133.09
2023-05-16T03:55:27.783Z,100120.84
2023-05-16T03:55:59.335Z,100120.31
2023-05-16T03:56:30.724Z,100127.09
2023-05-16T03:57:02.075Z,100123.84
2023-05-16T03:57:33.452Z,100124.09
2023-05-16T03:58:04.902Z,100126.56
2023-05-16T03:58:36.310Z,100121.66
2023-05-16T03:59:07.712Z,100131.44
2023-05-16T03:59:39.325Z,100132.53
2023-05-16T04:00:10.799Z,100129.53
2023-05-16T04:00:42.227Z,100129.28
2023-05-16T04:01:13.647Z,100134.44
2023-05-16T04:01:45.098Z,100134.16
2023-05-16T04:02:18.804Z,100134.72
2023-05-16T04:02:50.675Z,100131.44
2023-05-16T04:03:22.266Z,100131.44
2023-05-16T04:03:53.709Z,100125.19
2023-05-16T04:04:25.094Z,100138.25
2023-05-16T04:04:56.474Z,100141.25
2023-05-16T04:05:28.024Z,100133.63
2023-05-16T04:05:59.600Z,100138.25
2023-05-16T04:06:31.023Z,100139.88
2023-05-16T04:07:02.386Z,100134.97
2023-05-16T04:07:33.788Z,100143.16
2023-05-16T04:08:05.171Z,100140.69
2023-05-16T04:08:36.592Z,100139.34
2023-05-16T04:09:08.030Z,100143.41
2023-05-16T04:09:39.475Z,100139.06
2023-05-16T04:10:10.885Z,100145.31
2023-05-16T04:10:42.353Z,100139.63
2023-05-16T04:11:13.826Z,100147.78
2023-05-16T04:11:45.199Z,100144.78
2023-05-16T04:12:16.610Z,100140.97
2023-05-16T04:12:47.983Z,100140.97
2023-05-16T04:13:19.385Z,100146.94
2023-05-16T04:13:50.968Z,100143.16
2023-05-16T04:14:22.440Z,100148.84
2023-05-16T04:14:53.815Z,100144.78
2023-05-16T04:15:25.289Z,100148.03
2023-05-16T04:15:56.812Z,100145.59
2023-05-16T04:16:28.354Z,100151.56
2023-05-16T04:16:59.856Z,100150.75
2023-05-16T04:17:31.286Z,100150.75
2023-05-16T04:18:02.714Z,100151.31
2023-05-16T04:18:34.200Z,100152.38
2023-05-16T04:19:05.681Z,100150.50
2023-05-16T04:19:37.098Z,100156.19
2023-05-16T04:20:08.536Z,100159.19
2023-05-16T04:20:39.966Z,100155.94
2023-05-16T04:21:11.423Z,100165.19
2023-05-16T04:21:42.855Z,100149.13
2023-05-16T04:22:14.256Z,100164.34
2023-05-16T04:22:45.629Z,100150.50
2023-05-16T04:23:17.004Z,100165.44
2023-05-16T04:23:48.396Z,100159.72
2023-05-16T04:24:19.794Z,100162.19
2023-05-16T04:24:51.188Z,100161.91
2023-05-16T04:25:22.562Z,100158.91
2023-05-16T04:25:53.978Z,100163.53
2023-05-16T04:26:25.367Z,100157.81
2023-05-16T04:26:56.767Z,100156.75
2023-05-16T04:27:28.108Z,100169.78
2023-05-16T04:27:59.465Z,100176.06
2023-05-16T04:28:30.874Z,100173.59
2023-05-16T04:29:02.249Z,100166.53
2023-05-16T04:29:33.620Z,100170.34
2023-05-16T04:30:05.062Z,100171.69
2023-05-16T04:30:36.441Z,100171.97
2023-05-16T04:31:07.884Z,100168.97
2023-05-16T04:31:39.460Z,100168.72
2023-05-16T04:32:10.995Z,100173.59
2023-05-16T04:32:42.369Z,100180.41
2023-05-16T04:33:13.771Z,100177.69
2023-05-16T04:33:45.211Z,100178.50
2023-05-16T04:34:16.620Z,100180.94
2023-05-16T04:34:48.039Z,100176.31
2023-05-16T04:35:19.433Z,100181.22
2023-05-16T04:35:50.862Z,100178.50
2023-05-16T04:36:22.371Z,100181.75
2023-05-16T04:36:53.827Z,100180.66
2023-05-16T04:37:25.254Z,100183.66
2023-05-16T04:37:56.632Z,100178.78
2023-05-16T04:38:28.084Z,100186.13
2023-05-16T04:38:59.485Z,100185.28
2023-05-16T04:39:30.867Z,100181.75
2023-05-16T04:40:02.367Z,100182.31
2023-05-16T04:40:33.783Z,100181.50
2023-05-16T04:41:05.205Z,100188.84
2023-05-16T04:41:36.562Z,100188.84
2023-05-16T04:42:07.969Z,100186.38
2023-05-16T04:42:39.471Z,100189.38
2023-05-16T04:43:10.815Z,100189.66
2023-05-16T04:43:42.250Z,100188.56
2023-05-16T04:44:13.803Z,100190.47
2023-05-16T04:44:45.233Z,100189.91
2023-05-16T04:45:16.630Z,100188.84
2023-05-16T04:45:48.026Z,100191.28
2023-05-16T04:46:19.458Z,100192.63
2023-05-16T04:46:50.869Z,100194.28
2023-05-16T04:47:22.336Z,100196.72
2023-05-16T04:47:53.866Z,100195.63
2023-05-16T04:48:25.295Z,100193.19
2023-05-16T04:48:56.725Z,100200.81
2023-05-16T04:49:28.115Z,100191.81
2023-05-16T04:49:59.522Z,100198.06
2023-05-16T04:50:30.922Z,100195.09
2023-05-16T04:51:02.274Z,100197.53
2023-05-16T04:51:33.745Z,100197.81
2023-05-16T04:52:05.155Z,100201.34
2023-05-16T04:52:36.627Z,100206.50
2023-05-16T04:53:08.134Z,100202.69
2023-05-16T04:53:39.513Z,100200.53
2023-05-16T04:54:10.928Z,100203.25
2023-05-16T04:54:42.280Z,100207.31
2023-05-16T04:55:13.716Z,100204.06
2023-05-16T04:55:45.095Z,100209.75
2023-05-16T04:56:16.478Z,100207.59
2023-05-16T04:56:47.854Z,100211.66
2023-05-16T04:57:19.324Z,100212.47
2023-05-16T04:57:50.704Z,100214.66
2023-05-16T04:58:22.131Z,100214.38
2023-05-16T04:58:53.507Z,100214.13
2023-05-16T04:59:24.989Z,100214.38
2023-05-16T04:59:56.382Z,100218.19
2023-05-16T05:00:27.858Z,100218.75
2023-05-16T05:01:32.820Z,100217.09
2023-05-16T05:02:04.416Z,100220.91
2023-05-16T05:02:35.927Z,100213.31
2023-05-16T05:03:07.452Z,100215.47
2023-05-16T05:03:38.889Z,100220.38
2023-05-16T05:04:10.358Z,100223.09
2023-05-16T05:04:41.796Z,100219.81
2023-05-16T05:05:13.344Z,100222.56
2023-05-16T05:05:44.827Z,100226.06
2023-05-16T05:06:16.199Z,100220.63
2023-05-16T05:06:47.580Z,100220.66
2023-05-16T05:07:18.958Z,100229.06
2023-05-16T05:07:50.312Z,100228.00
2023-05-16T05:08:21.702Z,100227.16
2023-05-16T05:08:53.096Z,100229.88
2023-05-16T05:09:24.588Z,100223.91
2023-05-16T05:09:55.954Z,100225.81
2023-05-16T05:10:27.351Z,100234.50
2023-05-16T05:10:58.784Z,100227.97
2023-05-16T05:11:30.207Z,100233.97
2023-05-16T05:12:01.582Z,100232.88
2023-05-16T05:12:32.923Z,100233.97
2023-05-16T05:13:04.299Z,100240.50
2023-05-16T05:13:35.720Z,100237.22
2023-05-16T05:14:07.182Z,100239.41
2023-05-16T05:14:38.560Z,100240.78
2023-05-16T05:15:10.064Z,100238.84
2023-05-16T05:15:41.480Z,100226.91
2023-05-16T05:16:12.888Z,100234.78
2023-05-16T05:16:44.269Z,100237.78
2023-05-16T05:17:15.737Z,100238.31
2023-05-16T05:17:47.218Z,100236.41
2023-05-16T05:18:18.702Z,100236.69
2023-05-16T05:18:50.185Z,100238.59
2023-05-16T05:19:21.680Z,100238.88
2023-05-16T05:19:53.194Z,100239.41
2023-05-16T05:20:24.663Z,100245.66
2023-05-16T05:20:56.061Z,100250.53
2023-05-16T05:21:27.470Z,100235.06
2023-05-16T05:21:58.831Z,100246.47
2023-05-16T05:22:30.263Z,100247.56
2023-05-16T05:23:01.736Z,100240.22
2023-05-16T05:23:33.094Z,100241.03
2023-05-16T05:24:04.534Z,100241.56
2023-05-16T05:24:35.939Z,100240.22
2023-05-16T05:25:07.330Z,100244.84
2023-05-16T05:25:38.756Z,100246.19
2023-05-16T05:26:10.319Z,100242.13
2023-05-16T05:26:41.732Z,100245.38
2023-05-16T05:27:13.109Z,100248.09
2023-05-16T05:27:44.618Z,100244.84
2023-05-16T05:28:16.060Z,100239.41
2023-05-16T05:28:53.966Z,100247.28
2023-05-16T05:29:32.991Z,100251.63
2023-05-16T05:30:04.448Z,100256.25
2023-05-16T05:30:35.830Z,100257.34
2023-05-16T05:31:07.270Z,100255.44
2023-05-16T05:31:38.763Z,100253.81
2023-05-16T05:32:10.363Z,100251.91
2023-05-16T05:32:41.778Z,100255.72
2023-05-16T05:33:13.317Z,100262.78
2023-05-16T05:33:44.711Z,100260.88
2023-05-16T05:34:16.167Z,100264.97
2023-05-16T05:34:47.545Z,100260.88
2023-05-16T05:35:18.887Z,100260.59
2023-05-16T05:35:50.262Z,100265.22
2023-05-16T05:36:21.675Z,100259.25
2023-05-16T05:36:53.062Z,100257.34
2023-05-16T05:37:24.455Z,100258.69
2023-05-16T05:37:55.896Z,100259.78
2023-05-16T05:38:27.334Z,100268.22
2023-05-16T05:38:58.722Z,100263.88
2023-05-16T05:39:30.113Z,100269.59
2023-05-16T05:40:01.543Z,100267.66
2023-05-16T05:40:33.033Z,100258.97
2023-05-16T05:41:04.450Z,100271.75
2023-05-16T05:41:35.806Z,100261.69
2023-05-16T05:42:07.186Z,100268.22
2023-05-16T05:42:38.701Z,100268.75
2023-05-16T05:43:10.122Z,100269.59
2023-05-16T05:43:41.527Z,100267.97
2023-05-16T05:44:12.936Z,100271.47
2023-05-16T05:44:44.317Z,100274.75
2023-05-16T05:45:15.756Z,100271.75
2023-05-16T05:45:47.139Z,100273.41
2023-05-16T05:46:18.647Z,100272.03
2023-05-16T05:46:50.095Z,100273.09
2023-05-16T05:47:21.624Z,100269.56
2023-05-16T05:47:53.118Z,100274.47
2023-05-16T05:48:24.527Z,100279.09
2023-05-16T05:48:55.902Z,100270.94
2023-05-16T05:49:27.264Z,100275.56
2023-05-16T05:49:58.675Z,100279.63
2023-05-16T05:50:30.128Z,100275.03
2023-05-16T05:51:01.549Z,100276.66
2023-05-16T05:51:32.995Z,100268.22
2023-05-16T05:52:04.341Z,100273.38
2023-05-16T05:52:35.725Z,100273.66
2023-05-16T05:53:07.175Z,100272.31
2023-05-16T05:53:38.564Z,100274.19
2023-05-16T05:54:09.906Z,100276.66
2023-05-16T05:54:41.308Z,100275.28
2023-05-16T05:55:12.674Z,100272.03
2023-05-16T05:55:44.145Z,100275.56
2023-05-16T05:56:15.482Z,100279.09
2023-05-16T05:56:46.894Z,100273.13
2023-05-16T05:57:18.428Z,100280.19
2023-05-16T05:57:49.878Z,100277.47
2023-05-16T05:58:21.265Z,100279.66
2023-05-16T05:58:52.636Z,100278.56
2023-05-16T05:59:24.011Z,100276.91
2023-05-16T05:59:55.414Z,100276.13
2023-05-16T06:00:26.802Z,100278.03
2023-05-16T06:00:58.261Z,100281.00
2023-05-16T06:01:29.652Z,100284.81
2023-05-16T06:02:01.035Z,100280.19
2023-05-16T06:02:32.475Z,100284.25
2023-05-16T06:03:03.869Z,100283.72
2023-05-16T06:03:35.291Z,100284.53